Time;durP1;ratioP1;P1;durP2;ratioP2;P2;SDS_P1;SDS_P2;PMS_P1;PMS_P2;Temp;Humidity;BMP_temperature;BMP_pressure;BME280_temperature;BME280_humidity;BME280_pressure;Samples;Min_cycle;Max_cycle;Signal;HPM_P1;HPM_P2
2020/12/09 00:00:21;;;;;;;70.43;36.90;;;3.00;95.30;;;;;;5044598;28;20029;-68
2020/12/09 00:02:47;;;;;;;70.25;35.92;;;3.00;95.20;;;;;;5037970;28;20115;-67
2020/12/09 00:05:13;;;;;;;64.53;35.22;;;3.10;95.30;;;;;;5043508;28;20029;-68
2020/12/09 00:07:38;;;;;;;69.72;36.80;;;3.10;95.20;;;;;;5040875;28;20033;-67
2020/12/09 00:10:05;;;;;;;71.75;37.20;;;3.00;95.20;;;;;;5047169;28;20040;-67
2020/12/09 00:12:31;;;;;;;69.38;35.60;;;3.00;95.20;;;;;;5044522;28;20125;-67
2020/12/09 00:15:04;;;;;;;65.82;36.22;;;3.00;95.10;;;;;;5045778;28;20418;-67
2020/12/09 00:17:29;;;;;;;62.42;34.67;;;3.00;95.20;;;;;;5044512;28;20025;-68
2020/12/09 00:19:55;;;;;;;60.67;34.83;;;3.00;95.20;;;;;;5045409;28;20029;-68
2020/12/09 00:22:23;;;;;;;60.53;34.88;;;3.00;95.10;;;;;;5041876;28;20021;-68
2020/12/09 00:24:50;;;;;;;59.17;33.28;;;3.00;95.10;;;;;;5042078;28;20175;-67
2020/12/09 00:27:16;;;;;;;62.05;34.17;;;3.00;94.90;;;;;;5046278;28;20504;-67
2020/12/09 00:29:41;;;;;;;61.80;31.88;;;3.00;94.90;;;;;;5046486;28;20025;-69
2020/12/09 00:32:07;;;;;;;56.58;31.30;;;3.00;94.90;;;;;;5044605;28;20335;-68
2020/12/09 00:34:32;;;;;;;57.42;31.80;;;2.90;94.70;;;;;;5047010;28;20117;-67
2020/12/09 00:36:58;;;;;;;58.90;31.88;;;2.90;94.70;;;;;;5045291;28;20232;-67
2020/12/09 00:39:24;;;;;;;63.38;34.83;;;3.00;94.80;;;;;;5046001;28;20108;-69
2020/12/09 00:41:49;;;;;;;69.53;34.58;;;2.90;94.90;;;;;;5043987;28;20040;-68
2020/12/09 00:44:15;;;;;;;68.25;36.20;;;2.90;95.10;;;;;;5041803;28;20028;-68
2020/12/09 00:46:40;;;;;;;69.00;36.13;;;2.90;95.10;;;;;;5042768;28;20031;-68
2020/12/09 00:49:06;;;;;;;65.95;34.33;;;2.90;95.20;;;;;;5045330;28;20111;-68
2020/12/09 00:51:31;;;;;;;70.32;35.03;;;2.80;95.30;;;;;;5046813;28;20032;-68
2020/12/09 00:53:57;;;;;;;71.28;37.03;;;2.90;95.30;;;;;;5043800;28;20469;-68
2020/12/09 00:56:23;;;;;;;67.43;33.97;;;2.90;95.30;;;;;;5044201;28;20021;-67
2020/12/09 00:58:48;;;;;;;72.10;36.95;;;2.90;95.20;;;;;;5040673;28;20036;-68
2020/12/09 01:01:14;;;;;;;68.35;36.20;;;2.80;95.20;;;;;;5044248;28;20033;-68
2020/12/09 01:03:40;;;;;;;71.45;37.08;;;2.80;95.30;;;;;;5044666;28;20541;-68
2020/12/09 01:06:06;;;;;;;70.47;36.22;;;2.80;95.30;;;;;;5031810;28;20101;-67
2020/12/09 01:08:34;;;;;;;70.40;36.42;;;2.80;95.30;;;;;;5041992;28;20075;-68
2020/12/09 01:10:59;;;;;;;67.13;34.90;;;2.80;95.10;;;;;;5042955;28;20262;-67
2020/12/09 01:13:25;;;;;;;67.70;35.35;;;2.80;95.30;;;;;;5046629;28;20029;-68
2020/12/09 01:15:51;;;;;;;69.93;34.70;;;2.80;95.30;;;;;;5044670;28;20207;-68
2020/12/09 01:18:17;;;;;;;67.50;33.97;;;2.80;95.30;;;;;;5044796;28;20040;-67
2020/12/09 01:20:43;;;;;;;68.68;34.72;;;2.80;95.20;;;;;;5043104;28;20029;-67
2020/12/09 01:23:09;;;;;;;68.95;35.50;;;2.70;95.10;;;;;;5038875;28;20025;-68
2020/12/09 01:25:34;;;;;;;69.28;35.58;;;2.60;95.20;;;;;;5037396;28;20491;-68
2020/12/09 01:28:01;;;;;;;67.95;33.67;;;2.60;95.40;;;;;;5042103;28;20085;-68
2020/12/09 01:30:29;;;;;;;74.30;35.95;;;2.60;95.40;;;;;;5030839;28;20040;-68
2020/12/09 01:32:55;;;;;;;70.03;34.47;;;2.60;95.50;;;;;;5043138;28;20112;-68
2020/12/09 01:35:21;;;;;;;78.82;38.03;;;2.70;95.60;;;;;;5039151;28;20108;-68
2020/12/09 01:37:48;;;;;;;74.70;35.72;;;2.50;95.30;;;;;;5040528;28;20041;-68
2020/12/09 01:40:13;;;;;;;71.47;33.80;;;2.40;95.40;;;;;;5045500;28;20025;-68
2020/12/09 01:42:39;;;;;;;71.18;34.17;;;2.40;95.50;;;;;;5036743;28;20056;-68
2020/12/09 01:45:05;;;;;;;66.75;32.67;;;2.30;95.60;;;;;;5044796;28;20021;-68
2020/12/09 01:47:31;;;;;;;75.20;34.33;;;2.30;95.70;;;;;;5044557;28;20052;-68
2020/12/09 01:49:58;;;;;;;67.38;31.13;;;2.30;95.70;;;;;;5046599;28;20047;-67
2020/12/09 01:52:25;;;;;;;70.70;33.50;;;2.30;95.70;;;;;;5043584;28;20033;-69
2020/12/09 01:54:55;;;;;;;78.35;34.90;;;2.20;95.70;;;;;;5044783;28;20108;-67
2020/12/09 01:57:22;;;;;;;68.68;34.45;;;2.20;95.70;;;;;;5043453;28;20028;-68
2020/12/09 01:59:48;;;;;;;74.18;34.33;;;2.30;95.60;;;;;;5045661;28;20033;-68
2020/12/09 02:02:14;;;;;;;71.40;33.80;;;2.30;95.60;;;;;;5043763;28;20055;-68
2020/12/09 02:04:41;;;;;;;71.07;32.58;;;2.30;95.60;;;;;;5039592;28;20378;-68
2020/12/09 02:07:07;;;;;;;67.20;32.92;;;2.30;95.70;;;;;;5041714;28;20035;-67
2020/12/09 02:09:33;;;;;;;76.20;34.88;;;2.30;95.60;;;;;;5044751;28;20025;-68
2020/12/09 02:11:58;;;;;;;80.53;34.88;;;2.20;95.60;;;;;;5038966;28;20082;-66
2020/12/09 02:14:24;;;;;;;72.82;33.83;;;2.30;95.70;;;;;;5045108;28;20037;-68
2020/12/09 02:16:52;;;;;;;70.80;32.42;;;2.20;95.70;;;;;;5042501;28;20033;-67
2020/12/09 02:19:18;;;;;;;75.32;34.08;;;2.20;95.80;;;;;;5041828;28;20029;-68
2020/12/09 02:21:44;;;;;;;68.78;33.60;;;2.20;95.80;;;;;;5040976;28;20032;-67
2020/12/09 02:24:09;;;;;;;73.03;33.10;;;2.20;95.90;;;;;;5033701;28;20462;-67
2020/12/09 02:26:40;;;;;;;75.78;32.88;;;2.20;95.80;;;;;;5032366;28;20042;-68
2020/12/09 02:29:06;;;;;;;72.97;33.85;;;2.20;95.70;;;;;;5035820;28;20537;-67
2020/12/09 02:31:31;;;;;;;72.25;32.92;;;2.10;96.00;;;;;;5036089;28;20111;-67
2020/12/09 02:33:57;;;;;;;62.80;29.70;;;2.10;96.00;;;;;;5044909;28;20432;-68
2020/12/09 02:36:22;;;;;;;74.32;30.13;;;2.10;96.00;;;;;;5044996;28;20100;-69
2020/12/09 02:38:48;;;;;;;66.82;30.20;;;2.10;96.00;;;;;;5043831;28;20103;-68
2020/12/09 02:41:14;;;;;;;73.32;32.38;;;2.10;96.00;;;;;;5043469;28;20577;-68
2020/12/09 02:43:39;;;;;;;72.70;31.08;;;2.20;96.00;;;;;;5040435;28;20048;-67
2020/12/09 02:46:05;;;;;;;75.53;34.60;;;2.10;95.90;;;;;;5043881;28;20044;-66
2020/12/09 02:48:30;;;;;;;69.25;32.42;;;2.10;95.90;;;;;;5044215;28;20216;-67
2020/12/09 02:50:56;;;;;;;77.22;35.03;;;2.10;95.90;;;;;;5045700;28;20044;-67
2020/12/09 02:53:22;;;;;;;77.80;33.42;;;2.20;96.00;;;;;;5042266;28;20174;-67
2020/12/09 02:55:48;;;;;;;72.28;31.92;;;2.20;96.00;;;;;;5044541;28;20096;-68
2020/12/09 02:58:13;;;;;;;75.18;31.83;;;2.20;96.00;;;;;;5048183;28;20080;-67
2020/12/09 03:00:39;;;;;;;72.28;32.80;;;2.20;96.00;;;;;;5044161;28;20511;-68
2020/12/09 03:03:04;;;;;;;75.88;33.97;;;2.20;95.90;;;;;;5042049;28;20128;-67
2020/12/09 03:05:30;;;;;;;72.60;32.40;;;2.30;95.90;;;;;;5042837;28;20025;-68
2020/12/09 03:07:56;;;;;;;75.90;32.92;;;2.20;95.80;;;;;;5046371;28;20069;-67
2020/12/09 03:10:21;;;;;;;75.05;31.50;;;2.20;95.90;;;;;;5049378;28;20021;-67
2020/12/09 03:12:47;;;;;;;72.25;33.83;;;2.20;95.90;;;;;;5045169;28;20048;-67
2020/12/09 03:20:23;;;;;;;76.82;33.80;;;2.20;95.90;;;;;;6149050;22;20012;-65
2020/12/09 03:22:50;;;;;;;86.15;33.70;;;2.20;95.90;;;;;;5055333;28;20480;-66
2020/12/09 03:25:15;;;;;;;81.78;33.78;;;2.30;96.00;;;;;;5061604;28;20515;-67
2020/12/09 03:27:41;;;;;;;80.38;33.60;;;2.30;95.90;;;;;;5065810;28;20182;-67
2020/12/09 03:30:06;;;;;;;81.05;34.47;;;2.30;95.90;;;;;;5056329;28;20052;-67
2020/12/09 03:32:32;;;;;;;79.95;34.20;;;2.30;96.00;;;;;;5043707;28;20433;-66
2020/12/09 03:34:58;;;;;;;80.53;34.80;;;2.30;96.00;;;;;;5038008;28;20024;-66
2020/12/09 03:37:23;;;;;;;85.75;33.92;;;2.30;95.90;;;;;;5046100;28;20461;-67
2020/12/09 03:39:49;;;;;;;74.18;33.50;;;2.20;96.00;;;;;;5048689;28;20017;-67
2020/12/09 03:42:14;;;;;;;80.45;33.72;;;2.20;96.00;;;;;;5039829;28;20087;-67
2020/12/09 03:44:40;;;;;;;79.43;34.05;;;2.30;96.10;;;;;;5047876;28;20060;-66
2020/12/09 03:47:06;;;;;;;76.43;32.10;;;2.30;96.00;;;;;;5034766;28;20111;-66
2020/12/09 03:49:32;;;;;;;80.55;34.95;;;2.20;95.90;;;;;;5048147;28;20051;-66
2020/12/09 03:51:57;;;;;;;74.53;33.65;;;2.30;96.00;;;;;;5044703;28;20029;-66
2020/12/09 03:54:24;;;;;;;77.43;32.92;;;2.30;95.90;;;;;;5046818;28;20495;-66
2020/12/09 03:56:50;;;;;;;90.68;32.95;;;2.30;95.80;;;;;;5045600;28;20037;-67
2020/12/09 03:59:16;;;;;;;77.20;33.67;;;2.30;95.90;;;;;;5047047;28;20029;-67
2020/12/09 04:01:41;;;;;;;77.13;33.90;;;2.30;95.80;;;;;;5046710;28;20124;-67
2020/12/09 04:04:07;;;;;;;76.57;33.47;;;2.30;95.70;;;;;;5037839;28;20100;-67
2020/12/09 04:06:33;;;;;;;77.10;33.50;;;2.30;95.70;;;;;;5044507;28;20036;-66
2020/12/09 04:08:58;;;;;;;75.63;33.25;;;2.30;95.70;;;;;;5046643;28;20116;-67
2020/12/09 04:11:24;;;;;;;74.45;33.00;;;2.30;95.70;;;;;;5034225;28;20366;-67
2020/12/09 04:13:49;;;;;;;80.32;33.92;;;2.40;95.80;;;;;;5045794;28;20032;-67
2020/12/09 04:16:15;;;;;;;76.82;33.03;;;2.40;95.70;;;;;;5045859;28;20063;-67
2020/12/09 04:18:40;;;;;;;80.78;34.15;;;2.40;95.70;;;;;;5046017;28;20409;-67
2020/12/09 04:21:06;;;;;;;77.32;34.85;;;2.30;95.70;;;;;;5045628;28;20039;-67
2020/12/09 04:23:31;;;;;;;90.53;36.08;;;2.40;95.70;;;;;;5045296;28;20033;-65
2020/12/09 04:25:57;;;;;;;92.32;36.30;;;2.30;95.80;;;;;;5038905;28;20262;-67
2020/12/09 04:28:23;;;;;;;85.32;34.00;;;2.30;95.80;;;;;;5043427;28;20081;-66
2020/12/09 04:30:48;;;;;;;88.15;35.42;;;2.40;95.90;;;;;;5047390;28;20112;-67
2020/12/09 04:33:14;;;;;;;84.38;35.13;;;2.40;95.80;;;;;;5043692;28;20052;-67
2020/12/09 04:35:41;;;;;;;80.95;34.95;;;2.50;95.80;;;;;;5044678;28;20039;-67
2020/12/09 04:38:06;;;;;;;96.32;35.55;;;2.50;95.70;;;;;;5040778;28;20029;-66
2020/12/09 04:40:32;;;;;;;82.95;33.13;;;2.40;95.70;;;;;;5045257;28;20029;-67
2020/12/09 04:43:00;;;;;;;84.65;34.38;;;2.40;95.70;;;;;;5038747;28;20434;-66
2020/12/09 04:45:31;;;;;;;81.47;35.55;;;2.50;95.80;;;;;;5040236;28;20048;-66
2020/12/09 04:48:03;;;;;;;90.47;36.90;;;2.50;95.70;;;;;;5045188;28;20036;-66
2020/12/09 04:50:35;;;;;;;77.20;33.75;;;2.50;95.80;;;;;;5042795;28;20021;-67
2020/12/09 04:53:18;;;;;;;90.63;35.58;;;2.50;95.80;;;;;;5044566;28;20029;-67
2020/12/09 04:56:02;;;;;;;91.63;35.83;;;2.50;95.70;;;;;;5045166;28;20047;-67
2020/12/09 04:58:42;;;;;;;93.47;36.67;;;2.50;95.80;;;;;;5041883;28;20101;-66
2020/12/09 05:01:10;;;;;;;94.20;36.25;;;2.50;95.80;;;;;;5034964;28;20036;-66
2020/12/09 05:03:46;;;;;;;88.95;37.17;;;2.50;95.80;;;;;;5039420;28;20021;-67
2020/12/09 05:06:14;;;;;;;92.07;37.05;;;2.50;95.80;;;;;;5042003;28;20017;-67
2020/12/09 05:08:51;;;;;;;94.18;36.50;;;2.60;95.90;;;;;;5043215;28;20040;-66
2020/12/09 05:11:21;;;;;;;92.10;37.22;;;2.50;95.80;;;;;;5036947;28;20033;-66
2020/12/09 05:13:51;;;;;;;84.95;36.42;;;2.50;95.80;;;;;;5042044;28;20037;-67
2020/12/09 05:16:19;;;;;;;96.05;36.95;;;2.50;95.90;;;;;;5045449;28;20052;-67
2020/12/09 05:18:45;;;;;;;92.50;35.75;;;2.50;95.80;;;;;;5043789;28;20033;-66
2020/12/09 05:21:15;;;;;;;98.03;36.60;;;2.50;95.90;;;;;;5035674;28;20036;-66
2020/12/09 05:24:01;;;;;;;99.55;37.92;;;2.50;96.00;;;;;;5038577;28;20095;-66
2020/12/09 05:26:32;;;;;;;96.38;38.65;;;2.50;96.00;;;;;;5036186;28;20124;-67
2020/12/09 05:29:15;;;;;;;93.50;38.10;;;2.50;96.00;;;;;;5037540;28;20351;-67
2020/12/09 05:31:46;;;;;;;95.07;36.05;;;2.50;95.90;;;;;;5040841;28;20028;-66
2020/12/09 05:34:28;;;;;;;88.57;35.22;;;2.60;95.90;;;;;;5039536;28;20048;-67
2020/12/09 05:36:57;;;;;;;90.07;37.47;;;2.50;95.90;;;;;;5043706;28;20036;-68
2020/12/09 05:39:24;;;;;;;96.60;37.35;;;2.50;95.80;;;;;;5042489;28;20088;-67
2020/12/09 05:41:49;;;;;;;99.10;37.58;;;2.60;95.90;;;;;;5045031;28;20025;-66
2020/12/09 05:44:15;;;;;;;96.53;36.75;;;2.60;95.90;;;;;;5042800;28;20538;-66
2020/12/09 05:46:58;;;;;;;98.93;36.15;;;2.60;95.80;;;;;;5044926;28;20029;-65
2020/12/09 05:49:26;;;;;;;102.43;38.15;;;2.60;95.90;;;;;;5043710;28;20021;-67
2020/12/09 05:52:25;;;;;;;101.43;36.28;;;2.60;95.70;;;;;;5045227;28;20025;-65
2020/12/09 05:54:52;;;;;;;90.15;35.67;;;2.60;95.80;;;;;;5021024;28;20132;-67
2020/12/09 05:57:22;;;;;;;94.15;35.90;;;2.50;95.70;;;;;;5043483;28;20136;-66
2020/12/09 05:59:49;;;;;;;83.82;35.17;;;2.50;95.80;;;;;;5040878;28;20021;-66
2020/12/09 06:02:19;;;;;;;89.82;36.83;;;2.50;95.80;;;;;;5042715;28;20478;-66
2020/12/09 06:04:49;;;;;;;86.35;35.58;;;2.60;95.90;;;;;;5044639;28;20025;-67
2020/12/09 06:07:15;;;;;;;94.88;37.60;;;2.50;95.80;;;;;;5043879;28;20058;-66
2020/12/09 06:10:00;;;;;;;98.30;37.47;;;2.50;95.80;;;;;;5035142;28;20078;-65
2020/12/09 06:12:26;;;;;;;94.10;35.85;;;2.60;95.80;;;;;;5028217;28;20115;-67
2020/12/09 06:15:14;;;;;;;88.22;35.00;;;2.60;95.80;;;;;;5039741;28;20116;-67
2020/12/09 06:17:40;;;;;;;90.65;35.97;;;2.50;95.70;;;;;;5043924;28;20045;-65
2020/12/09 06:20:06;;;;;;;88.63;36.03;;;2.60;95.70;;;;;;5041209;28;20033;-66
2020/12/09 06:22:32;;;;;;;84.88;35.60;;;2.50;95.60;;;;;;5042907;28;20130;-66
2020/12/09 06:25:04;;;;;;;88.28;36.22;;;2.50;95.60;;;;;;5043961;28;20098;-66
2020/12/09 06:27:34;;;;;;;88.78;35.67;;;2.50;95.60;;;;;;5043423;28;20182;-67
2020/12/09 06:30:00;;;;;;;82.85;35.28;;;2.50;95.60;;;;;;5044943;28;20086;-67
2020/12/09 06:32:26;;;;;;;81.97;35.00;;;2.60;95.60;;;;;;5043587;28;20021;-66
2020/12/09 06:35:06;;;;;;;85.32;35.35;;;2.50;95.60;;;;;;5049407;28;20116;-67
2020/12/09 06:37:32;;;;;;;90.50;36.53;;;2.60;95.60;;;;;;5044180;28;20467;-67
2020/12/09 06:40:11;;;;;;;89.88;34.78;;;2.60;95.60;;;;;;5038218;28;20104;-66
2020/12/09 06:42:38;;;;;;;74.97;34.28;;;2.50;95.50;;;;;;5044112;28;20028;-66
2020/12/09 06:45:05;;;;;;;84.38;34.03;;;2.50;95.50;;;;;;5048593;28;20033;-67
2020/12/09 06:47:31;;;;;;;94.38;35.40;;;2.60;95.60;;;;;;5047377;28;20064;-66
2020/12/09 06:50:00;;;;;;;80.72;34.47;;;2.50;95.50;;;;;;5045649;28;20119;-65
2020/12/09 06:52:34;;;;;;;79.75;34.60;;;2.50;95.40;;;;;;5046315;28;22429;-65
2020/12/09 06:55:00;;;;;;;84.60;36.05;;;2.50;95.50;;;;;;5036918;28;20532;-66
2020/12/09 06:57:33;;;;;;;88.15;37.05;;;2.60;95.50;;;;;;5038451;28;20030;-67
2020/12/09 07:00:11;;;;;;;85.53;34.95;;;2.50;95.50;;;;;;5035716;28;20100;-67
2020/12/09 07:02:40;;;;;;;82.15;35.13;;;2.50;95.50;;;;;;5036651;28;20575;-67
2020/12/09 07:05:10;;;;;;;77.82;34.10;;;2.60;95.60;;;;;;5037751;28;21280;-66
2020/12/09 07:07:44;;;;;;;81.50;35.33;;;2.60;95.40;;;;;;5039042;28;20055;-66
2020/12/09 07:10:22;;;;;;;83.25;34.03;;;2.60;95.50;;;;;;5036979;28;20073;-67
2020/12/09 07:13:08;;;;;;;88.95;35.30;;;2.60;95.40;;;;;;5036334;28;20051;-66
2020/12/09 07:15:38;;;;;;;81.72;35.90;;;2.60;95.50;;;;;;5037086;28;20029;-67
2020/12/09 07:18:05;;;;;;;82.53;34.80;;;2.60;95.40;;;;;;5037568;28;20090;-65
2020/12/09 07:20:31;;;;;;;83.78;36.65;;;2.60;95.40;;;;;;5035955;28;20025;-65
2020/12/09 07:22:56;;;;;;;74.30;34.55;;;2.60;95.50;;;;;;5036334;28;20673;-67
2020/12/09 07:25:23;;;;;;;80.85;35.45;;;2.60;95.50;;;;;;5037813;28;20029;-66
2020/12/09 07:27:48;;;;;;;82.72;34.15;;;2.60;95.40;;;;;;5036933;28;20157;-67
2020/12/09 07:30:17;;;;;;;80.40;34.60;;;2.60;95.30;;;;;;5033017;28;20109;-66
2020/12/09 07:32:43;;;;;;;81.30;34.17;;;2.60;95.40;;;;;;5029884;28;20037;-66
2020/12/09 07:35:11;;;;;;;78.25;33.40;;;2.60;95.40;;;;;;5035985;28;20548;-67
2020/12/09 07:37:40;;;;;;;80.25;33.60;;;2.60;95.30;;;;;;5041934;28;20067;-68
2020/12/09 07:40:16;;;;;;;84.03;35.83;;;2.60;95.30;;;;;;5040952;28;20245;-68
2020/12/09 07:42:42;;;;;;;82.22;34.70;;;2.60;95.40;;;;;;5045470;28;20085;-68
2020/12/09 07:45:16;;;;;;;77.18;33.80;;;2.60;95.30;;;;;;5043754;28;20021;-67
2020/12/09 07:47:42;;;;;;;73.30;34.58;;;2.60;95.30;;;;;;5042069;28;20109;-68
2020/12/09 07:50:08;;;;;;;75.63;33.25;;;2.60;95.20;;;;;;5043609;28;20043;-67
2020/12/09 07:52:39;;;;;;;79.00;34.85;;;2.60;95.30;;;;;;5046357;28;20025;-67
2020/12/09 07:55:11;;;;;;;;;;;2.60;95.30;;;;;;5041194;28;20025;-68
2020/12/09 07:57:37;;;;;;;76.82;34.50;;;2.70;95.30;;;;;;5037491;28;19963;-68
2020/12/09 08:00:11;;;;;;;81.38;36.30;;;2.70;95.20;;;;;;5041290;28;20060;-68
2020/12/09 08:02:37;;;;;;;76.72;34.22;;;2.60;95.20;;;;;;5045397;28;20033;-67
2020/12/09 08:05:06;;;;;;;81.50;33.92;;;2.70;95.30;;;;;;5043267;28;20021;-68
2020/12/09 08:07:31;;;;;;;82.30;35.28;;;2.70;95.20;;;;;;5044699;28;20115;-67
2020/12/09 08:10:08;;;;;;;79.47;35.80;;;2.70;95.20;;;;;;5038202;28;20458;-67
2020/12/09 08:12:36;;;;;;;74.22;32.83;;;2.80;95.20;;;;;;5035678;28;20025;-67
2020/12/09 08:15:03;;;;;;;77.00;34.40;;;2.70;95.10;;;;;;5043086;28;20029;-68
2020/12/09 08:17:30;;;;;;;75.25;32.85;;;2.70;94.90;;;;;;5039600;28;20032;-68
2020/12/09 08:20:07;;;;;;;81.32;35.45;;;2.70;95.10;;;;;;5041623;28;20029;-67
2020/12/09 08:23:09;;;;;;;71.55;32.03;;;2.70;95.10;;;;;;5038519;28;20115;-67
2020/12/09 08:25:46;;;;;;;75.38;32.70;;;2.70;95.00;;;;;;4966788;28;20141;-67
2020/12/09 08:28:11;;;;;;;69.30;33.65;;;2.80;95.10;;;;;;5037106;28;20449;-67
2020/12/09 08:30:37;;;;;;;77.88;34.45;;;2.80;95.10;;;;;;5046442;28;20045;-68
2020/12/09 08:33:12;;;;;;;73.32;34.55;;;2.70;95.10;;;;;;5044006;28;20052;-67
2020/12/09 08:36:00;;;;;;;74.78;32.50;;;2.80;95.00;;;;;;5035122;28;20063;-67
2020/12/09 08:38:31;;;;;;;72.68;31.23;;;2.80;94.90;;;;;;5044034;28;20250;-68
2020/12/09 08:40:59;;;;;;;67.80;32.65;;;2.80;95.00;;;;;;5045346;28;20203;-67
2020/12/09 08:43:30;;;;;;;67.25;31.80;;;2.90;94.90;;;;;;5044890;28;20033;-67
2020/12/09 08:45:56;;;;;;;73.07;33.03;;;2.80;94.90;;;;;;5032760;28;20243;-67
2020/12/09 08:48:22;;;;;;;75.28;33.10;;;2.80;94.80;;;;;;5042215;28;20111;-68
2020/12/09 08:50:49;;;;;;;72.63;33.03;;;2.80;94.80;;;;;;5046379;28;20108;-68
2020/12/09 08:53:16;;;;;;;64.75;30.58;;;2.80;94.70;;;;;;5045261;28;20032;-68
2020/12/09 08:55:42;;;;;;;70.72;32.47;;;2.90;94.80;;;;;;5041801;28;20037;-67
2020/12/09 08:58:12;;;;;;;67.18;31.83;;;2.90;94.70;;;;;;5043636;28;20025;-68
2020/12/09 09:00:39;;;;;;;70.80;32.40;;;2.90;94.60;;;;;;5038541;28;20091;-68
2020/12/09 09:03:06;;;;;;;68.13;32.20;;;3.00;94.70;;;;;;5044050;28;20028;-68
2020/12/09 09:05:32;;;;;;;62.08;31.00;;;3.00;94.60;;;;;;5043022;28;20541;-66
2020/12/09 09:07:57;;;;;;;64.43;30.00;;;3.00;94.30;;;;;;5042187;28;20112;-68
2020/12/09 09:10:23;;;;;;;67.90;31.83;;;3.00;94.30;;;;;;5042845;28;20081;-68
2020/12/09 09:12:49;;;;;;;55.55;28.55;;;3.00;94.50;;;;;;5044760;28;20055;-68
2020/12/09 09:15:15;;;;;;;59.80;30.17;;;3.00;94.30;;;;;;5045153;28;20083;-68
2020/12/09 09:17:40;;;;;;;57.45;28.80;;;3.10;94.20;;;;;;5042951;28;20052;-68
2020/12/09 09:20:07;;;;;;;63.92;30.85;;;3.10;94.20;;;;;;5041374;28;20378;-68
2020/12/09 09:22:32;;;;;;;62.92;31.45;;;3.10;94.10;;;;;;5098541;22;20458;-65
2020/12/09 09:24:58;;;;;;;71.47;31.30;;;3.00;94.00;;;;;;5066004;28;20075;-66
2020/12/09 09:27:24;;;;;;;64.55;31.08;;;3.10;94.10;;;;;;5061224;28;20414;-65
2020/12/09 09:29:50;;;;;;;66.72;31.15;;;3.10;94.10;;;;;;5064247;28;20028;-66
2020/12/09 09:32:17;;;;;;;61.65;29.60;;;3.10;94.20;;;;;;5059756;28;20111;-66
2020/12/09 09:34:43;;;;;;;69.50;31.05;;;3.10;94.10;;;;;;5054419;28;20188;-66
2020/12/09 09:37:09;;;;;;;56.75;29.08;;;3.10;94.00;;;;;;5060676;28;20032;-66
2020/12/09 09:39:36;;;;;;;69.20;31.92;;;3.00;93.90;;;;;;5057371;28;20081;-66
2020/12/09 09:42:03;;;;;;;64.90;31.23;;;3.00;94.10;;;;;;5062775;28;20131;-67
2020/12/09 09:44:29;;;;;;;59.72;30.52;;;3.20;94.20;;;;;;5052129;28;20078;-67
2020/12/09 09:46:58;;;;;;;65.03;30.17;;;3.20;94.10;;;;;;5049306;28;20021;-67
2020/12/09 09:49:25;;;;;;;57.05;28.70;;;3.20;93.80;;;;;;5055483;28;20028;-67
2020/12/09 09:51:54;;;;;;;60.00;29.25;;;3.10;93.60;;;;;;5060121;28;20668;-67
2020/12/09 09:54:20;;;;;;;59.58;28.75;;;3.10;93.70;;;;;;5062411;28;20036;-66
2020/12/09 09:56:46;;;;;;;61.40;28.88;;;3.20;93.80;;;;;;5053351;28;20036;-66
2020/12/09 09:59:12;;;;;;;56.17;27.73;;;3.20;93.60;;;;;;5058475;28;20103;-66
2020/12/09 10:01:37;;;;;;;56.78;28.08;;;3.20;93.70;;;;;;5062538;28;20028;-66
2020/12/09 10:04:06;;;;;;;59.78;28.55;;;3.10;93.60;;;;;;5059878;28;20024;-67
2020/12/09 10:06:33;;;;;;;69.50;28.83;;;3.10;93.60;;;;;;5054797;28;20195;-66
2020/12/09 10:08:59;;;;;;;60.15;28.75;;;3.10;93.70;;;;;;5059993;28;20501;-67
2020/12/09 10:11:24;;;;;;;59.47;29.02;;;3.10;93.90;;;;;;5053918;28;20130;-67
2020/12/09 10:13:51;;;;;;;60.88;28.63;;;3.10;94.00;;;;;;5061960;28;20108;-66
2020/12/09 10:16:26;;;;;;;59.67;28.23;;;3.10;93.90;;;;;;5062730;28;20034;-67
2020/12/09 10:18:52;;;;;;;65.03;29.35;;;3.10;93.90;;;;;;5063651;28;20024;-67
2020/12/09 10:21:29;;;;;;;64.50;29.58;;;3.20;93.80;;;;;;5065624;28;20024;-66
2020/12/09 10:23:56;;;;;;;61.33;28.25;;;3.10;93.90;;;;;;5062787;28;20369;-67
2020/12/09 10:26:35;;;;;;;66.82;28.85;;;3.20;93.90;;;;;;5049991;28;20017;-67
2020/12/09 10:29:03;;;;;;;61.65;28.95;;;3.10;93.80;;;;;;5055239;28;20021;-66
2020/12/09 10:31:39;;;;;;;59.20;29.17;;;3.10;93.80;;;;;;5050645;28;20385;-67
2020/12/09 10:34:07;;;;;;;59.33;28.85;;;3.10;93.70;;;;;;5063548;28;20134;-66
2020/12/09 10:36:33;;;;;;;57.15;28.30;;;3.10;93.70;;;;;;5062563;28;20400;-67
2020/12/09 10:38:59;;;;;;;57.80;28.60;;;3.10;93.80;;;;;;5060641;28;20188;-67
2020/12/09 10:41:25;;;;;;;57.42;28.75;;;3.10;93.80;;;;;;5065692;28;20029;-67
2020/12/09 10:43:53;;;;;;;63.45;29.65;;;3.20;93.70;;;;;;5065044;28;20098;-66
2020/12/09 10:46:20;;;;;;;64.15;28.33;;;3.20;93.80;;;;;;5061475;28;20124;-66
2020/12/09 10:48:46;;;;;;;61.58;28.88;;;3.20;93.90;;;;;;5048734;28;20394;-66
2020/12/09 10:51:12;;;;;;;60.35;28.55;;;3.20;93.60;;;;;;5060021;28;20066;-67
2020/12/09 10:53:37;;;;;;;54.70;28.60;;;3.20;93.70;;;;;;5059437;28;20555;-66
2020/12/09 10:56:03;;;;;;;58.97;28.17;;;3.30;93.80;;;;;;5065424;28;20086;-67
2020/12/09 10:58:29;;;;;;;63.33;28.45;;;3.20;93.40;;;;;;5061915;28;20085;-66
2020/12/09 11:00:56;;;;;;;66.63;28.88;;;3.30;93.70;;;;;;5057135;28;20211;-66
2020/12/09 11:03:22;;;;;;;55.42;26.88;;;3.20;93.60;;;;;;5048321;28;20039;-66
2020/12/09 11:05:48;;;;;;;61.75;29.10;;;3.20;93.70;;;;;;5045255;28;20031;-67
2020/12/09 11:08:14;;;;;;;64.90;29.98;;;3.30;93.80;;;;;;5057873;28;20025;-66
2020/12/09 11:10:40;;;;;;;61.50;29.13;;;3.30;93.70;;;;;;5058365;28;20062;-66
2020/12/09 11:13:07;;;;;;;61.17;30.52;;;3.30;93.70;;;;;;5054920;28;20036;-65
2020/12/09 11:15:33;;;;;;;63.90;28.55;;;3.30;93.60;;;;;;5061613;28;20292;-66
2020/12/09 11:17:59;;;;;;;63.53;27.98;;;3.30;93.60;;;;;;5057945;28;20159;-67
2020/12/09 11:20:25;;;;;;;58.75;28.70;;;3.40;93.60;;;;;;5063017;28;20025;-67
2020/12/09 11:22:50;;;;;;;60.97;29.17;;;3.30;93.40;;;;;;5056837;28;20102;-66
2020/12/09 11:25:16;;;;;;;63.15;29.80;;;3.30;93.40;;;;;;5054956;28;20069;-66
2020/12/09 11:27:41;;;;;;;57.25;29.08;;;3.30;93.40;;;;;;5054102;28;20056;-67
2020/12/09 11:30:07;;;;;;;63.90;28.70;;;3.40;93.60;;;;;;5058062;28;20032;-66
2020/12/09 11:32:34;;;;;;;64.82;29.98;;;3.40;93.50;;;;;;5064351;28;20024;-67
2020/12/09 11:35:00;;;;;;;56.78;27.33;;;3.40;93.50;;;;;;5059886;28;20032;-65
2020/12/09 11:37:26;;;;;;;61.33;29.63;;;3.30;93.30;;;;;;5056962;28;20039;-66
2020/12/09 11:39:52;;;;;;;62.72;29.88;;;3.40;93.50;;;;;;5055067;28;20029;-67
2020/12/09 11:42:17;;;;;;;65.55;29.85;;;3.40;93.50;;;;;;5058319;28;20094;-67
2020/12/09 11:44:43;;;;;;;64.32;29.25;;;3.40;93.70;;;;;;5053214;28;20626;-66
2020/12/09 11:47:09;;;;;;;59.22;28.38;;;3.50;93.60;;;;;;5060148;28;20031;-66
2020/12/09 11:49:34;;;;;;;62.47;29.02;;;3.50;93.50;;;;;;5065414;28;20025;-67
2020/12/09 11:52:00;;;;;;;62.17;28.77;;;3.50;93.30;;;;;;5061324;28;20058;-66
2020/12/09 11:54:26;;;;;;;64.75;30.10;;;3.50;93.40;;;;;;5062443;28;20493;-67
2020/12/09 11:56:51;;;;;;;59.30;30.52;;;3.50;93.30;;;;;;5059624;28;20029;-67
2020/12/09 11:59:17;;;;;;;65.78;29.08;;;3.50;93.30;;;;;;5063937;28;20097;-66
2020/12/09 12:01:43;;;;;;;65.55;29.45;;;3.60;93.20;;;;;;5067491;28;20081;-67
2020/12/09 12:04:09;;;;;;;64.88;29.25;;;3.60;93.40;;;;;;5063761;28;20051;-66
2020/12/09 12:06:35;;;;;;;61.88;28.42;;;3.50;93.20;;;;;;5063541;28;20078;-67
2020/12/09 12:09:01;;;;;;;58.47;27.92;;;3.50;93.10;;;;;;5063541;28;20488;-67
2020/12/09 12:11:28;;;;;;;53.88;27.55;;;3.60;93.30;;;;;;5059020;28;20104;-67
2020/12/09 12:13:53;;;;;;;66.88;28.27;;;3.50;93.00;;;;;;5060342;28;20047;-66
2020/12/09 12:16:21;;;;;;;61.42;29.10;;;3.60;93.10;;;;;;5062370;28;20048;-67
2020/12/09 12:18:48;;;;;;;72.63;31.50;;;3.60;93.20;;;;;;5064843;28;20028;-67
2020/12/09 12:21:14;;;;;;;68.70;29.95;;;3.60;93.10;;;;;;5056631;28;20028;-67
2020/12/09 12:23:40;;;;;;;59.72;28.48;;;3.70;93.00;;;;;;5045906;28;20132;-66
2020/12/09 12:26:06;;;;;;;60.15;29.48;;;3.60;93.10;;;;;;5048717;28;20108;-66
2020/12/09 12:28:32;;;;;;;67.13;29.98;;;3.70;93.20;;;;;;5062434;28;20052;-66
2020/12/09 12:30:57;;;;;;;58.35;28.60;;;3.60;93.10;;;;;;5063585;28;20296;-66
2020/12/09 12:33:23;;;;;;;59.42;27.45;;;3.60;93.20;;;;;;5055088;28;20454;-66
2020/12/09 12:35:49;;;;;;;67.40;28.35;;;3.60;93.10;;;;;;5065669;28;20032;-67
2020/12/09 12:38:15;;;;;;;59.75;29.15;;;3.60;93.20;;;;;;5053414;28;20071;-66
2020/12/09 12:40:40;;;;;;;59.22;27.13;;;3.50;93.00;;;;;;5063102;28;20381;-66
2020/12/09 12:43:07;;;;;;;53.15;27.33;;;3.60;93.20;;;;;;5055255;28;20039;-67
2020/12/09 12:45:32;;;;;;;58.70;27.20;;;3.50;92.90;;;;;;5058716;28;20190;-67